createdAt,value
2023-03-28T00:00:58.325Z,97908.34
2023-03-28T00:03:27.472Z,97901.16
2023-03-28T00:06:02.558Z,97899.78
2023-03-28T00:08:30.219Z,97904.94
2023-03-28T00:11:09.482Z,97903.56
2023-03-28T00:13:37.098Z,97901.16
2023-03-28T00:16:08.849Z,97894.56
2023-03-28T00:18:39.977Z,97894.47
2023-03-28T00:21:29.566Z,97885.38
2023-03-28T00:24:02.502Z,97882.09
2023-03-28T00:26:32.630Z,97881.03
2023-03-28T00:29:01.646Z,97878.06
2023-03-28T00:31:30.712Z,97882.09
2023-03-28T00:33:58.410Z,97870.47
2023-03-28T00:36:29.876Z,97871.63
2023-03-28T00:38:57.999Z,97885.81
2023-03-28T00:41:31.420Z,97880.53
2023-03-28T00:43:59.897Z,97868.47
2023-03-28T00:46:38.611Z,97875.34
2023-03-28T00:49:27.957Z,97874.47
2023-03-28T00:52:01.790Z,97874.72
2023-03-28T00:54:33.464Z,97873.31
2023-03-28T00:57:03.975Z,97859.78
2023-03-28T00:59:34.504Z,97864.84
2023-03-28T01:02:02.219Z,97856.09
2023-03-28T01:04:38.660Z,97853.44
2023-03-28T01:07:07.168Z,97855.31
2023-03-28T01:09:38.078Z,97845.41
2023-03-28T01:12:05.928Z,97839.56
2023-03-28T01:14:33.466Z,97845.91
2023-03-28T01:17:03.158Z,97838.59
2023-03-28T01:19:32.447Z,97831.72
2023-03-28T01:22:02.699Z,97837.75
2023-03-28T01:24:52.153Z,97815.63
2023-03-28T01:27:41.513Z,97820.69
2023-03-28T01:30:32.075Z,97818.28
2023-03-28T01:33:39.098Z,97824.25
2023-03-28T01:36:36.044Z,97825.09
2023-03-28T01:39:23.568Z,97821.38
2023-03-28T01:41:57.024Z,97813.53
2023-03-28T01:44:50.766Z,97828.47
2023-03-28T01:47:40.540Z,97833.75
2023-03-28T01:50:23.445Z,97830.72
2023-03-28T01:53:31.158Z,97834.41
2023-03-28T01:56:22.413Z,97841.13
2023-03-28T01:59:20.662Z,97844.41
2023-03-28T02:02:27.658Z,97847.81
2023-03-28T02:05:04.669Z,97859.00
2023-03-28T02:07:38.692Z,97850.47
2023-03-28T02:10:12.391Z,97853.91
2023-03-28T02:13:21.541Z,97848.81
2023-03-28T02:16:13.238Z,97846.38
2023-03-28T02:19:00.155Z,97847.28
2023-03-28T02:22:15.169Z,97845.88
2023-03-28T02:25:09.505Z,97836.88
2023-03-28T02:28:03.004Z,97833.22
2023-03-28T02:30:52.025Z,97825.84
2023-03-28T02:33:40.260Z,97831.13
2023-03-28T02:36:28.909Z,97826.47
2023-03-28T02:39:06.641Z,97819.34
2023-03-28T02:41:49.302Z,97823.56
2023-03-28T02:44:38.541Z,97818.94
2023-03-28T02:47:20.803Z,97817.38
2023-03-28T02:50:28.679Z,97802.38
2023-03-28T02:53:27.311Z,97797.84
2023-03-28T02:56:16.445Z,97804.81
2023-03-28T02:59:07.608Z,97802.06
2023-03-28T03:01:38.445Z,97792.25
2023-03-28T03:04:06.683Z,97794.69
2023-03-28T03:06:37.378Z,97806.94
2023-03-28T03:09:05.305Z,97807.25
2023-03-28T03:11:32.868Z,97801.56
2023-03-28T03:14:00.708Z,97805.97
2023-03-28T03:16:30.002Z,97800.50
2023-03-28T03:18:58.811Z,97800.59
2023-03-28T03:21:26.937Z,97794.47
2023-03-28T03:23:54.345Z,97793.75
2023-03-28T03:26:22.775Z,97797.44
2023-03-28T03:29:01.774Z,97793.22
2023-03-28T03:31:32.480Z,97798.69
2023-03-28T03:34:05.708Z,97790.59
2023-03-28T03:36:38.474Z,97781.19
2023-03-28T03:39:07.849Z,97770.63
2023-03-28T03:41:35.946Z,97772.44
2023-03-28T03:44:06.341Z,97776.72
2023-03-28T03:46:33.780Z,97776.94
2023-03-28T03:49:02.712Z,97775.53
2023-03-28T03:51:30.085Z,97775.66
2023-03-28T03:53:59.235Z,97778.81
2023-03-28T03:56:38.035Z,97765.94
2023-03-28T03:59:05.967Z,97773.63
2023-03-28T04:01:36.201Z,97774.59
2023-03-28T04:04:32.664Z,97765.28
2023-03-28T04:07:18.692Z,97778.38
2023-03-28T04:09:51.692Z,97765.19
2023-03-28T04:12:19.389Z,97768.66
2023-03-28T04:14:49.759Z,97767.94
2023-03-28T04:17:35.527Z,97772.06
2023-03-28T04:20:16.044Z,97766.78
2023-03-28T04:23:06.260Z,97772.28
2023-03-28T04:25:35.356Z,97768.56
2023-03-28T04:28:10.978Z,97764.06
2023-03-28T04:30:46.915Z,97767.53
2023-03-28T04:33:40.369Z,97763.09
2023-03-28T04:36:09.840Z,97772.69
2023-03-28T04:38:37.729Z,97775.28
2023-03-28T04:41:22.020Z,97774.19
2023-03-28T04:44:04.891Z,97763.53
2023-03-28T04:46:39.017Z,97759.75
2023-03-28T04:49:12.474Z,97753.56
2023-03-28T04:51:39.844Z,97753.34
2023-03-28T04:54:07.615Z,97741.94
2023-03-28T04:56:51.457Z,97726.72
2023-03-28T04:59:27.293Z,97727.59
2023-03-28T05:01:56.130Z,97709.97
2023-03-28T05:04:26.967Z,97699.06
2023-03-28T05:06:56.011Z,97688.31
2023-03-28T05:09:24.121Z,97678.59
2023-03-28T05:11:51.640Z,97676.38
2023-03-28T05:14:19.825Z,97660.44
2023-03-28T05:16:50.866Z,97660.25
2023-03-28T05:19:47.684Z,97647.47
2023-03-28T05:22:17.845Z,97644.00
2023-03-28T05:24:45.160Z,97640.22
2023-03-28T05:27:18.918Z,97634.28
2023-03-28T05:29:47.949Z,97621.13
2023-03-28T05:32:17.458Z,97619.25
2023-03-28T05:34:46.224Z,97614.28
2023-03-28T05:37:14.419Z,97611.84
2023-03-28T05:39:54.133Z,97603.53
2023-03-28T05:42:21.956Z,97598.78
2023-03-28T05:44:49.917Z,97586.81
2023-03-28T05:47:36.520Z,97590.44
2023-03-28T05:50:04.923Z,97592.38
2023-03-28T05:52:32.842Z,97584.16
2023-03-28T05:55:05.862Z,97591.66
2023-03-28T05:57:33.961Z,97587.91
2023-03-28T06:00:15.304Z,97596.53
2023-03-28T06:02:46.727Z,97608.78
2023-03-28T06:05:18.567Z,97601.31
2023-03-28T06:07:46.563Z,97597.59
2023-03-28T06:10:17.623Z,97597.47
2023-03-28T06:13:06.094Z,97592.97
2023-03-28T06:15:34.308Z,97591.63
2023-03-28T06:18:01.711Z,97585.47
2023-03-28T06:20:29.178Z,97595.56
2023-03-28T06:22:56.660Z,97588.28
2023-03-28T06:25:23.870Z,97583.66
2023-03-28T06:27:51.573Z,97586.84
2023-03-28T06:30:19.794Z,97580.50
2023-03-28T06:32:51.220Z,97586.56
2023-03-28T06:35:19.339Z,97576.25
2023-03-28T06:37:46.878Z,97571.56
2023-03-28T06:40:18.791Z,97576.63
2023-03-28T06:42:46.447Z,97592.53
2023-03-28T06:45:20.494Z,97581.72
2023-03-28T06:48:08.171Z,97570.91
2023-03-28T06:51:08.729Z,97573.81
2023-03-28T06:53:37.797Z,97570.34
2023-03-28T06:56:07.334Z,97575.84
2023-03-28T06:58:36.730Z,97565.47
2023-03-28T07:01:11.252Z,97562.94
2023-03-28T07:03:59.946Z,97565.94
2023-03-28T07:06:28.463Z,97559.91
2023-03-28T07:09:03.494Z,97554.41
2023-03-28T07:11:51.045Z,97567.38
2023-03-28T07:14:20.728Z,97562.28
2023-03-28T07:16:49.495Z,97566.00
2023-03-28T07:19:16.895Z,97574.38
2023-03-28T07:21:48.524Z,97573.28
2023-03-28T07:24:16.525Z,97568.34
2023-03-28T07:27:15.404Z,97585.31
2023-03-28T07:29:46.537Z,97579.03
2023-03-28T07:32:14.558Z,97581.25
2023-03-28T07:34:45.490Z,97587.50
2023-03-28T07:37:19.247Z,97578.31
2023-03-28T07:40:08.178Z,97584.19
2023-03-28T07:42:38.629Z,97580.72
2023-03-28T07:45:06.863Z,97588.53
2023-03-28T07:47:34.587Z,97588.66
2023-03-28T07:50:03.321Z,97576.66
2023-03-28T07:52:30.826Z,97580.06
2023-03-28T07:54:58.342Z,97576.41
2023-03-28T07:57:28.100Z,97570.19
2023-03-28T08:00:02.337Z,97576.00
2023-03-28T08:02:44.681Z,97579.13
2023-03-28T08:05:14.522Z,97563.03
2023-03-28T08:07:46.404Z,97561.88
2023-03-28T08:10:14.577Z,97559.25
2023-03-28T08:12:42.180Z,97551.41
2023-03-28T08:15:10.537Z,97552.03
2023-03-28T08:17:38.384Z,97552.28
2023-03-28T08:20:12.094Z,97553.09
2023-03-28T08:23:09.369Z,97552.03
2023-03-28T08:25:44.729Z,97543.25
2023-03-28T08:28:14.964Z,97543.50
2023-03-28T08:30:42.619Z,97540.38
2023-03-28T08:33:10.837Z,97544.72
2023-03-28T08:35:38.528Z,97547.00
2023-03-28T08:38:14.460Z,97539.28
2023-03-28T08:40:48.148Z,97540.38
2023-03-28T08:43:29.698Z,97544.47
2023-03-28T08:46:00.383Z,97544.84
2023-03-28T08:48:43.578Z,97554.47
2023-03-28T08:51:35.736Z,97558.38
2023-03-28T08:54:47.588Z,97549.25
2023-03-28T08:57:42.871Z,97548.63
2023-03-28T09:00:27.833Z,97546.84
2023-03-28T09:02:56.465Z,97544.22
2023-03-28T09:05:46.006Z,97548.53
2023-03-28T09:08:22.989Z,97552.25
2023-03-28T09:11:24.598Z,97554.44
2023-03-28T09:14:23.568Z,97554.53
2023-03-28T09:17:04.238Z,97553.44
2023-03-28T09:19:55.564Z,97550.94
2023-03-28T09:23:10.559Z,97537.81
2023-03-28T09:26:17.928Z,97545.41
2023-03-28T09:29:06.927Z,97538.81
2023-03-28T09:31:52.136Z,97539.63
2023-03-28T09:34:27.826Z,97534.22
2023-03-28T09:37:07.581Z,97536.41
2023-03-28T09:39:49.927Z,97543.34
2023-03-28T09:42:18.093Z,97532.53
2023-03-28T09:45:00.385Z,97529.41
2023-03-28T09:47:50.649Z,97526.19
2023-03-28T09:50:21.882Z,97535.91
2023-03-28T09:53:00.353Z,97534.94
2023-03-28T09:55:32.002Z,97534.00
2023-03-28T09:58:05.034Z,97528.59
2023-03-28T10:00:47.989Z,97532.16
2023-03-28T10:03:55.283Z,97537.09
2023-03-28T10:06:39.855Z,97531.44
2023-03-28T10:09:27.852Z,97530.00
2023-03-28T10:12:09.932Z,97534.31
2023-03-28T10:14:46.736Z,97534.56
2023-03-28T10:17:44.361Z,97536.59
2023-03-28T10:20:24.168Z,97531.44
2023-03-28T10:22:57.348Z,97536.59
2023-03-28T10:25:44.608Z,97536.69
2023-03-28T10:28:19.006Z,97534.91
2023-03-28T10:30:55.019Z,97538.03
2023-03-28T10:33:34.418Z,97526.75
2023-03-28T10:36:31.849Z,97531.44
2023-03-28T10:39:21.167Z,97530.47
2023-03-28T10:42:07.154Z,97530.00
2023-03-28T10:45:07.416Z,97530.00
2023-03-28T10:47:37.185Z,97525.34
2023-03-28T10:50:42.822Z,97528.59
2023-03-28T10:53:23.239Z,97530.88
2023-03-28T10:56:07.117Z,97523.41
2023-03-28T10:58:54.925Z,97509.22
2023-03-28T11:01:41.422Z,97519.91
2023-03-28T11:04:11.533Z,97515.47
2023-03-28T11:06:58.650Z,97522.69
2023-03-28T11:10:21.152Z,97520.75
2023-03-28T11:13:42.979Z,97523.53
2023-03-28T11:16:25.626Z,97521.72
2023-03-28T11:19:56.100Z,97513.53
2023-03-28T11:22:38.862Z,97518.84
2023-03-28T11:25:44.653Z,97518.13
2023-03-28T11:29:07.154Z,97522.06
2023-03-28T11:31:53.357Z,97543.66
2023-03-28T11:34:23.826Z,97543.59
2023-03-28T11:37:04.863Z,97540.59
2023-03-28T11:40:07.211Z,97553.34
2023-03-28T11:42:58.995Z,97566.59
2023-03-28T11:45:50.371Z,97573.09
2023-03-28T11:48:50.594Z,97584.22
2023-03-28T11:51:59.704Z,97581.44
2023-03-28T11:54:40.016Z,97580.63
2023-03-28T11:57:20.964Z,97587.06
2023-03-28T12:00:14.809Z,97593.47
2023-03-28T12:03:12.999Z,97594.66
2023-03-28T12:06:04.967Z,97604.97
2023-03-28T12:08:42.437Z,97616.81
2023-03-28T12:11:24.716Z,97615.66
2023-03-28T12:14:14.012Z,97616.06
2023-03-28T12:16:51.650Z,97621.19
2023-03-28T12:19:37.028Z,97622.72
2023-03-28T12:22:30.802Z,97622.59
2023-03-28T12:25:32.332Z,97628.41
2023-03-28T12:28:12.986Z,97642.59
2023-03-28T12:30:55.257Z,97635.19
2023-03-28T12:33:44.843Z,97628.75
2023-03-28T12:36:43.248Z,97648.59
2023-03-28T12:39:41.672Z,97661.81
2023-03-28T12:42:20.618Z,97652.69
2023-03-28T12:45:00.763Z,97646.56
2023-03-28T12:47:41.940Z,97646.69
2023-03-28T12:50:18.019Z,97663.13
2023-03-28T12:52:47.177Z,97655.06
2023-03-28T12:55:47.004Z,97676.16
2023-03-28T12:58:28.666Z,97666.50
2023-03-28T13:01:07.957Z,97668.38
2023-03-28T13:03:41.656Z,97667.53
2023-03-28T13:06:30.943Z,97666.63
2023-03-28T13:09:01.552Z,97669.50
2023-03-28T13:11:55.837Z,97681.16
2023-03-28T13:14:43.334Z,97688.34
2023-03-28T13:17:24.892Z,97690.94
2023-03-28T13:20:07.692Z,97700.59
2023-03-28T13:22:50.309Z,97695.44
2023-03-28T13:25:22.993Z,97702.66
2023-03-28T13:27:56.484Z,97694.66
2023-03-28T13:30:31.951Z,97704.50
2023-03-28T13:33:04.313Z,97720.25
2023-03-28T13:35:49.509Z,97716.88
2023-03-28T13:38:29.627Z,97715.28
2023-03-28T13:41:13.141Z,97728.53
2023-03-28T13:43:51.484Z,97720.66
2023-03-28T13:46:23.261Z,97720.78
2023-03-28T13:48:55.960Z,97722.56
2023-03-28T13:51:26.763Z,97715.06
2023-03-28T13:53:54.533Z,97736.06
2023-03-28T13:56:25.907Z,97726.66
2023-03-28T13:58:55.838Z,97747.66
2023-03-28T14:01:34.324Z,97753.72
2023-03-28T14:04:02.264Z,97749.44
2023-03-28T14:06:31.523Z,97753.13
2023-03-28T14:09:02.773Z,97754.22
2023-03-28T14:11:35.274Z,97768.53
2023-03-28T14:14:15.932Z,97770.22
2023-03-28T14:16:46.028Z,97767.97
2023-03-28T14:19:21.712Z,97770.34
2023-03-28T14:21:53.029Z,97769.84
2023-03-28T14:24:26.978Z,97765.66
2023-03-28T14:27:09.798Z,97772.47
2023-03-28T14:29:55.405Z,97770.63
2023-03-28T14:32:32.119Z,97782.06
2023-03-28T14:35:20.874Z,97775.06
2023-03-28T14:37:56.323Z,97770.88
2023-03-28T14:40:24.082Z,97778.63
2023-03-28T14:42:56.572Z,97772.47
2023-03-28T14:45:26.822Z,97778.06
2023-03-28T14:47:56.633Z,97790.81
2023-03-28T14:50:31.446Z,97797.09
2023-03-28T14:53:06.252Z,97803.28
2023-03-28T14:55:38.073Z,97807.94
2023-03-28T14:58:13.718Z,97818.81
2023-03-28T15:00:43.551Z,97830.41
2023-03-28T15:03:32.263Z,97827.91
2023-03-28T15:06:00.799Z,97847.13
2023-03-28T15:08:34.629Z,97837.47
2023-03-28T15:11:30.252Z,97834.97
2023-03-28T15:14:22.855Z,97845.19
2023-03-28T15:16:50.191Z,97858.75
2023-03-28T15:19:28.657Z,97857.47
2023-03-28T15:22:00.877Z,97852.66
2023-03-28T15:24:29.503Z,97865.78
2023-03-28T15:27:02.039Z,97875.97
2023-03-28T15:29:38.783Z,97869.41
2023-03-28T15:32:14.678Z,97880.66
2023-03-28T15:35:09.754Z,97877.63
2023-03-28T15:37:44.459Z,97896.09
2023-03-28T15:40:28.685Z,97903.88
2023-03-28T15:42:57.662Z,97911.97
2023-03-28T15:45:38.156Z,97907.75
2023-03-28T15:48:06.294Z,97912.75
2023-03-28T15:50:38.670Z,97916.38
2023-03-28T15:53:13.263Z,97928.75
2023-03-28T15:55:41.980Z,97938.19
2023-03-28T15:58:19.367Z,97928.91
2023-03-28T16:00:53.265Z,97935.91
2023-03-28T16:03:20.802Z,97948.38
2023-03-28T16:05:52.578Z,97941.41
2023-03-28T16:08:32.076Z,97953.03
2023-03-28T16:11:01.132Z,97960.00
2023-03-28T16:13:38.315Z,97965.84
2023-03-28T16:16:32.244Z,97976.41
2023-03-28T16:19:30.608Z,97984.41
2023-03-28T16:22:00.535Z,97987.19
2023-03-28T16:24:28.393Z,97979.56
2023-03-28T16:26:56.516Z,97988.34
2023-03-28T16:29:24.601Z,97998.13
2023-03-28T16:31:52.350Z,98006.06
2023-03-28T16:34:20.349Z,98022.19
2023-03-28T16:36:47.648Z,98011.34
2023-03-28T16:39:15.036Z,98025.22
2023-03-28T16:41:42.471Z,98020.06
2023-03-28T16:44:09.730Z,98020.28
2023-03-28T16:46:37.935Z,98039.28
2023-03-28T16:49:05.486Z,98047.88
2023-03-28T16:51:34.124Z,98039.22
2023-03-28T16:54:02.446Z,98038.31
2023-03-28T16:56:31.326Z,98043.47
2023-03-28T16:58:59.421Z,98045.47
2023-03-28T17:01:27.910Z,98066.34
2023-03-28T17:03:56.199Z,98070.59
2023-03-28T17:06:26.814Z,98066.94
2023-03-28T17:08:55.787Z,98079.44
2023-03-28T17:11:23.626Z,98075.22
2023-03-28T17:13:53.732Z,98086.28
2023-03-28T17:16:22.941Z,98085.34
2023-03-28T17:18:50.910Z,98098.66
2023-03-28T17:21:19.136Z,98080.44
2023-03-28T17:23:48.925Z,98099.22
2023-03-28T17:26:17.618Z,98099.22
2023-03-28T17:28:45.390Z,98114.38
2023-03-28T17:31:19.642Z,98113.53
2023-03-28T17:33:49.336Z,98111.91
2023-03-28T17:36:21.198Z,98134.53
2023-03-28T17:38:52.111Z,98143.03
2023-03-28T17:41:22.094Z,98128.69
2023-03-28T17:43:49.939Z,98127.81
2023-03-28T17:46:17.776Z,98146.38
2023-03-28T17:48:45.618Z,98152.31
2023-03-28T17:51:14.118Z,98142.22
2023-03-28T17:53:44.840Z,98160.38
2023-03-28T17:56:14.853Z,98151.50
2023-03-28T17:58:43.174Z,98150.81
2023-03-28T18:01:17.298Z,98146.28
2023-03-28T18:03:46.214Z,98147.16
2023-03-28T18:06:34.016Z,98150.75
2023-03-28T18:09:01.721Z,98150.63
2023-03-28T18:11:30.718Z,98157.72
2023-03-28T18:13:59.122Z,98155.13
2023-03-28T18:16:28.109Z,98158.44
2023-03-28T18:18:55.678Z,98170.69
2023-03-28T18:21:23.561Z,98174.28
2023-03-28T18:23:51.650Z,98180.34
2023-03-28T18:26:20.570Z,98193.53
2023-03-28T18:28:47.670Z,98178.63
2023-03-28T18:31:18.281Z,98208.06
2023-03-28T18:33:46.231Z,98208.31
2023-03-28T18:36:14.853Z,98204.78
2023-03-28T18:38:44.877Z,98204.03
2023-03-28T18:41:14.154Z,98208.31
2023-03-28T18:43:43.427Z,98222.13
2023-03-28T18:46:15.641Z,98220.38
2023-03-28T18:48:44.961Z,98215.28
2023-03-28T18:51:12.718Z,98230.78
2023-03-28T18:53:40.357Z,98213.47
2023-03-28T18:56:09.207Z,98211.75
2023-03-28T18:58:37.490Z,98230.84
2023-03-28T19:01:06.365Z,98219.59
2023-03-28T19:03:43.846Z,98242.94
2023-03-28T19:06:13.425Z,98237.78
2023-03-28T19:08:41.022Z,98235.22
2023-03-28T19:11:15.328Z,98248.47
2023-03-28T19:13:44.474Z,98248.47
2023-03-28T19:16:14.386Z,98244.78
2023-03-28T19:18:44.620Z,98251.66
2023-03-28T19:21:12.570Z,98253.41
2023-03-28T19:23:40.991Z,98267.25
2023-03-28T19:26:10.025Z,98268.91
2023-03-28T19:28:37.576Z,98271.66
2023-03-28T19:31:07.495Z,98280.63
2023-03-28T19:33:37.061Z,98259.97
2023-03-28T19:36:06.408Z,98271.19
2023-03-28T19:38:36.752Z,98279.81
2023-03-28T19:41:10.351Z,98284.47
2023-03-28T19:43:38.862Z,98275.03
2023-03-28T19:46:08.658Z,98274.81
2023-03-28T19:48:36.498Z,98284.41
2023-03-28T19:51:04.240Z,98264.44
2023-03-28T19:53:31.593Z,98269.72
2023-03-28T19:56:00.270Z,98268.03
2023-03-28T19:58:28.763Z,98276.53
2023-03-28T20:00:57.258Z,98269.66
2023-03-28T20:03:26.464Z,98289.28
2023-03-28T20:05:54.436Z,98286.06
2023-03-28T20:08:21.807Z,98272.13
2023-03-28T20:10:52.393Z,98304.00
2023-03-28T20:13:19.945Z,98285.91
2023-03-28T20:15:47.631Z,98304.75
2023-03-28T20:18:20.318Z,98303.88
2023-03-28T20:20:52.871Z,98299.50
2023-03-28T20:23:23.796Z,98295.22
2023-03-28T20:25:53.205Z,98304.72
2023-03-28T20:28:25.157Z,98315.88
2023-03-28T20:30:53.951Z,98327.19
2023-03-28T20:33:22.018Z,98328.09
2023-03-28T20:35:57.357Z,98329.59
2023-03-28T20:38:26.493Z,98318.41
2023-03-28T20:40:57.073Z,98338.34
2023-03-28T20:43:29.505Z,98341.75
2023-03-28T20:45:58.327Z,98335.75
2023-03-28T20:48:34.974Z,98359.19
2023-03-28T20:51:16.021Z,98342.78
2023-03-28T20:53:49.649Z,98361.69
2023-03-28T20:56:20.274Z,98367.69
2023-03-28T20:58:48.421Z,98365.00
2023-03-28T21:01:17.955Z,98360.69
2023-03-28T21:03:53.935Z,98371.03
2023-03-28T21:06:38.506Z,98371.72
2023-03-28T21:09:08.924Z,98371.81
2023-03-28T21:11:38.876Z,98382.09
2023-03-28T21:14:08.007Z,98381.28
2023-03-28T21:16:35.555Z,98391.50
2023-03-28T21:19:02.960Z,98393.31
2023-03-28T21:21:33.449Z,98391.44
2023-03-28T21:24:01.918Z,98397.47
2023-03-28T21:26:29.442Z,98383.53
2023-03-28T21:28:56.908Z,98402.56
2023-03-28T21:31:26.645Z,98409.53
2023-03-28T21:33:57.491Z,98405.19
2023-03-28T21:36:25.932Z,98407.75
2023-03-28T21:38:54.257Z,98409.47
2023-03-28T21:41:22.970Z,98414.41
2023-03-28T21:43:53.880Z,98400.59
2023-03-28T21:46:22.229Z,98405.94
2023-03-28T21:48:50.152Z,98412.03
2023-03-28T21:51:18.046Z,98402.53
2023-03-28T21:53:47.717Z,98417.16
2023-03-28T21:56:16.593Z,98409.31
2023-03-28T21:58:44.646Z,98405.09
2023-03-28T22:01:14.662Z,98413.63
2023-03-28T22:03:42.577Z,98425.94
2023-03-28T22:06:10.592Z,98430.22
2023-03-28T22:08:38.216Z,98445.03
2023-03-28T22:11:14.641Z,98444.94
2023-03-28T22:13:43.086Z,98435.31
2023-03-28T22:16:13.023Z,98430.28
2023-03-28T22:18:42.628Z,98438.03
2023-03-28T22:21:14.323Z,98441.59
2023-03-28T22:23:43.492Z,98457.13
2023-03-28T22:26:12.573Z,98460.66
2023-03-28T22:28:39.832Z,98444.16
2023-03-28T22:31:07.498Z,98456.47
2023-03-28T22:33:34.813Z,98458.16
2023-03-28T22:36:02.073Z,98471.94
2023-03-28T22:38:29.422Z,98461.53
2023-03-28T22:40:56.734Z,98488.44
2023-03-28T22:43:25.459Z,98485.91
2023-03-28T22:45:52.885Z,98490.31
2023-03-28T22:48:20.505Z,98483.41
2023-03-28T22:50:47.845Z,98489.56
2023-03-28T22:53:15.528Z,98497.34
2023-03-28T22:55:44.335Z,98506.81
2023-03-28T22:58:12.353Z,98499.03
2023-03-28T23:00:41.275Z,98505.97
2023-03-28T23:03:08.730Z,98504.13
2023-03-28T23:05:37.219Z,98518.97
2023-03-28T23:08:07.903Z,98491.25
2023-03-28T23:10:35.446Z,98500.06
2023-03-28T23:13:02.614Z,98507.84
2023-03-28T23:15:30.213Z,98498.41
2023-03-28T23:17:58.304Z,98498.28
2023-03-28T23:20:27.244Z,98508.72
2023-03-28T23:22:54.443Z,98503.56
2023-03-28T23:25:22.508Z,98529.41
2023-03-28T23:27:50.070Z,98535.56
2023-03-28T23:30:17.946Z,98539.16
2023-03-28T23:32:45.364Z,98548.56
2023-03-28T23:35:13.265Z,98538.84
2023-03-28T23:37:40.850Z,98537.38
2023-03-28T23:40:13.202Z,98546.78
2023-03-28T23:42:43.096Z,98546.78
2023-03-28T23:45:11.728Z,98552.91
2023-03-28T23:47:39.170Z,98554.59
2023-03-28T23:50:07.199Z,98550.25
2023-03-28T23:52:35.608Z,98553.69
2023-03-28T23:55:02.974Z,98539.06
2023-03-28T23:57:30.868Z,98558.97
2023-03-28T23:59:59.147Z,98555.47
